createdAt,value
2017-08-14T00:09:35.283Z,14.41
2017-08-14T00:39:53.961Z,13.95
2017-08-14T01:00:03.102Z,13.97
2017-08-14T01:05:02.832Z,14.04
2017-08-14T01:10:02.350Z,14.00
2017-08-14T01:40:09.951Z,13.87
2017-08-14T01:50:18.184Z,14.00
2017-08-14T02:10:26.778Z,13.86
2017-08-14T02:15:24.291Z,13.77
2017-08-14T02:20:26.978Z,13.77
2017-08-14T02:25:25.579Z,13.79
2017-08-14T02:30:22.081Z,13.83
2017-08-14T02:45:29.190Z,13.75
2017-08-14T03:05:36.900Z,13.42
2017-08-14T03:15:43.107Z,13.28
2017-08-14T03:56:15.628Z,13.22
2017-08-14T04:16:18.832Z,13.25
2017-08-14T04:21:15.384Z,13.23
2017-08-14T04:26:11.746Z,13.16
2017-08-14T04:31:07.920Z,13.18
2017-08-14T04:36:07.008Z,13.30
2017-08-14T04:41:02.926Z,13.23
2017-08-14T04:56:05.329Z,13.31
2017-08-14T05:01:01.942Z,13.38
2017-08-14T05:06:00.892Z,13.42
2017-08-14T05:10:59.512Z,13.52
2017-08-14T05:15:58.011Z,13.74
2017-08-14T05:30:55.490Z,13.85
2017-08-14T05:35:53.628Z,14.07
2017-08-14T05:40:49.644Z,14.30
2017-08-14T05:45:47.573Z,14.41
2017-08-14T05:50:46.272Z,14.55
2017-08-14T05:55:45.802Z,14.66
2017-08-14T06:00:41.905Z,14.85
2017-08-14T06:05:38.032Z,14.97
2017-08-14T06:10:35.040Z,15.06
2017-08-14T06:15:32.933Z,15.07
2017-08-14T06:20:30.370Z,15.24
2017-08-14T06:25:27.321Z,15.37
2017-08-14T06:35:34.694Z,15.64
2017-08-14T06:40:32.551Z,15.80
2017-08-14T06:45:30.805Z,15.95
2017-08-14T06:50:26.500Z,16.09
2017-08-14T06:55:26.707Z,16.09
2017-08-14T07:00:26.991Z,16.32
2017-08-14T07:10:29.939Z,16.41
2017-08-14T07:20:35.121Z,16.79
2017-08-14T07:25:31.977Z,16.75
2017-08-14T07:30:28.959Z,16.90
2017-08-14T07:35:25.387Z,17.12
2017-08-14T07:40:22.832Z,17.42
2017-08-14T07:45:23.241Z,17.68
2017-08-14T07:55:28.898Z,18.93
2017-08-14T08:00:27.298Z,19.34
2017-08-14T08:05:25.592Z,19.37
2017-08-14T08:10:23.269Z,19.62
2017-08-14T08:15:23.717Z,20.19
2017-08-14T08:20:20.807Z,20.56
2017-08-14T08:25:23.640Z,21.43
2017-08-14T08:30:23.527Z,21.73
2017-08-14T08:40:22.486Z,22.08
2017-08-14T08:45:19.762Z,22.15
2017-08-14T08:50:18.259Z,22.33
2017-08-14T09:00:18.723Z,21.20
2017-08-14T09:05:17.117Z,20.97
2017-08-14T09:10:13.455Z,20.88
2017-08-14T09:15:09.839Z,20.70
2017-08-14T09:25:04.964Z,21.00
2017-08-14T09:30:00.659Z,21.20
2017-08-14T09:34:59.155Z,21.66
2017-08-14T09:39:56.737Z,22.33
2017-08-14T09:49:57.792Z,23.41
2017-08-14T09:54:56.525Z,23.37
2017-08-14T09:59:53.873Z,23.59
2017-08-14T10:04:50.878Z,23.32
2017-08-14T10:09:48.312Z,23.31
2017-08-14T10:14:44.765Z,23.84
2017-08-14T10:19:47.144Z,23.99
2017-08-14T10:24:42.899Z,23.99
2017-08-14T10:29:39.264Z,24.10
2017-08-14T10:34:35.483Z,24.53
2017-08-14T10:39:33.408Z,24.61
2017-08-14T10:44:29.327Z,23.84
2017-08-14T10:49:25.453Z,24.38
2017-08-14T10:54:21.780Z,24.08
2017-08-14T10:59:17.607Z,24.50
2017-08-14T11:04:14.050Z,24.57
2017-08-14T11:09:11.659Z,24.89
2017-08-14T11:14:10.258Z,25.18
2017-08-14T11:19:06.428Z,25.43
2017-08-14T11:24:03.440Z,25.60
2017-08-14T11:29:01.608Z,25.70
2017-08-14T11:34:00.082Z,25.91
2017-08-14T11:38:58.198Z,25.99
2017-08-14T11:43:54.074Z,25.07
2017-08-14T11:48:50.807Z,25.50
2017-08-14T11:53:48.136Z,25.08
2017-08-14T11:58:45.077Z,25.69
2017-08-14T12:03:41.513Z,25.88
2017-08-14T12:08:38.160Z,25.91
2017-08-14T12:13:36.611Z,25.75
2017-08-14T12:18:33.847Z,25.99
2017-08-14T12:23:25.849Z,25.03
2017-08-14T12:28:21.812Z,24.65
2017-08-14T12:33:16.119Z,24.88
2017-08-14T12:38:12.357Z,24.63
2017-08-14T12:48:11.342Z,24.16
2017-08-14T12:53:08.439Z,24.50
2017-08-14T12:58:06.186Z,24.78
2017-08-14T13:03:06.731Z,24.69
2017-08-14T13:08:01.515Z,24.65
2017-08-14T13:17:56.796Z,24.01
2017-08-14T13:22:54.644Z,24.24
2017-08-14T13:27:52.108Z,24.54
2017-08-14T13:32:48.599Z,24.76
2017-08-14T13:37:46.100Z,24.77
2017-08-14T13:42:43.012Z,24.48
2017-08-14T13:47:39.741Z,24.24
2017-08-14T13:52:36.112Z,24.30
2017-08-14T13:57:31.296Z,24.13
2017-08-14T14:02:29.596Z,24.30
2017-08-14T14:07:26.028Z,24.23
2017-08-14T14:12:22.624Z,23.99
2017-08-14T14:17:23.706Z,24.03
2017-08-14T14:22:24.778Z,24.20
2017-08-14T14:27:21.372Z,24.45
2017-08-14T14:32:18.684Z,24.66
2017-08-14T14:37:17.070Z,24.69
2017-08-14T14:42:13.328Z,24.74
2017-08-14T14:47:10.914Z,24.53
2017-08-14T14:52:07.337Z,24.50
2017-08-14T14:57:06.356Z,24.51
2017-08-14T15:02:03.829Z,24.60
2017-08-14T15:07:00.852Z,24.53
2017-08-14T15:11:58.365Z,24.69
2017-08-14T15:16:54.548Z,24.43
2017-08-14T15:21:51.207Z,24.51
2017-08-14T15:26:46.752Z,24.40
2017-08-14T15:31:44.362Z,24.68
2017-08-14T15:36:41.202Z,24.60
2017-08-14T15:41:36.818Z,24.66
2017-08-14T15:46:32.987Z,24.48
2017-08-14T15:51:30.007Z,24.47
2017-08-14T15:56:25.871Z,24.50
2017-08-14T16:01:21.934Z,24.63
2017-08-14T16:06:21.268Z,24.65
2017-08-14T16:11:17.573Z,24.43
2017-08-14T16:16:14.385Z,24.45
2017-08-14T16:21:10.150Z,24.26
2017-08-14T16:26:07.126Z,24.10
2017-08-14T16:31:02.505Z,24.17
2017-08-14T16:36:00.746Z,24.21
2017-08-14T16:46:01.445Z,24.74
2017-08-14T16:51:00.525Z,24.51
2017-08-14T16:55:57.878Z,24.53
2017-08-14T17:00:53.272Z,24.51
2017-08-14T17:05:51.496Z,24.36
2017-08-14T17:10:48.155Z,24.51
2017-08-14T17:15:44.924Z,24.45
2017-08-14T17:20:41.812Z,24.38
2017-08-14T17:25:38.591Z,24.14
2017-08-14T17:30:35.453Z,24.23
2017-08-14T17:35:33.243Z,24.16
2017-08-14T17:45:29.291Z,24.06
2017-08-14T17:55:24.925Z,23.78
2017-08-14T18:00:22.920Z,23.71
2017-08-14T18:05:21.051Z,23.56
2017-08-14T18:10:17.386Z,23.48
2017-08-14T18:15:13.081Z,23.44
2017-08-14T18:20:11.224Z,23.24
2017-08-14T18:30:12.370Z,23.15
2017-08-14T18:35:10.644Z,23.05
2017-08-14T18:40:08.924Z,23.00
2017-08-14T18:45:04.889Z,22.87
2017-08-14T18:50:00.713Z,22.84
2017-08-14T18:54:58.308Z,22.84
2017-08-14T18:59:55.895Z,22.68
2017-08-14T19:04:52.101Z,22.55
2017-08-14T19:09:51.570Z,22.54
2017-08-14T19:14:47.823Z,22.48
2017-08-14T19:19:44.932Z,22.44
2017-08-14T19:24:42.228Z,22.32
2017-08-14T19:29:38.052Z,22.23
2017-08-14T19:34:34.503Z,22.18
2017-08-14T19:39:32.349Z,22.11
2017-08-14T19:44:28.870Z,22.06
2017-08-14T19:49:25.258Z,21.77
2017-08-14T19:54:22.146Z,21.75
2017-08-14T19:59:18.902Z,21.70
2017-08-14T20:04:15.327Z,21.70
2017-08-14T20:09:12.207Z,21.66
2017-08-14T20:14:08.892Z,21.52
2017-08-14T20:19:06.603Z,21.43
2017-08-14T20:24:02.227Z,21.43
2017-08-14T20:28:58.388Z,21.32
2017-08-14T20:33:55.071Z,21.29
2017-08-14T20:38:51.973Z,21.17
2017-08-14T20:43:51.392Z,21.17
2017-08-14T20:48:48.916Z,21.14
2017-08-14T20:53:45.911Z,21.14
2017-08-14T20:58:42.771Z,21.07
2017-08-14T21:03:39.978Z,21.02
2017-08-14T21:08:37.007Z,20.99
2017-08-14T21:13:34.720Z,20.99
2017-08-14T21:18:35.038Z,20.87
2017-08-14T21:23:31.783Z,20.87
2017-08-14T21:28:28.435Z,20.80
2017-08-14T21:33:25.454Z,20.63
2017-08-14T21:48:30.457Z,20.47
2017-08-14T21:53:27.516Z,20.40
2017-08-14T21:58:31.552Z,20.43
2017-08-14T22:03:26.021Z,20.32
2017-08-14T22:08:25.680Z,20.29
2017-08-14T22:13:25.576Z,20.31
2017-08-14T22:28:37.755Z,20.26
2017-08-14T22:33:33.232Z,20.32
2017-08-14T22:43:46.529Z,20.40
2017-08-14T22:53:40.416Z,20.44
2017-08-14T22:58:39.166Z,20.39
2017-08-14T23:03:34.883Z,20.51
2017-08-14T23:08:32.641Z,20.65
2017-08-14T23:13:29.699Z,20.72
2017-08-14T23:18:27.991Z,20.77
2017-08-14T23:28:29.797Z,20.80
2017-08-14T23:33:27.629Z,20.62
2017-08-14T23:58:32.106Z,20.02
